KIJX/IJX METAR and TAF weather

Enter ICAO airport designator
Station Type Date Time Source
KIJX METAR 2022/06/29 00:55 UTC NOAA

KIJX 290055Z AUTO 22003KT 10SM CLR 24/14 A3015 RMK AO2 T02410143


Station Type Date Time Source
KIJX Decoded METAR 2022/06/29 00:55 UTC NOAA

Jacksonville, Jacksonville Municipal Airport, IL, United States (KIJX) 39-46-27N 090-14-19W
Jun 28, 2022 - 08:55 PM EDT / 2022.06.29 0055 UTC
Wind: from the SW (220 degrees) at 3 MPH (3 KT):0
Visibility: 10 mile(s):0
Sky conditions: clear
Temperature: 75.4 F (24.1 C)
Dew Point: 57.7 F (14.3 C)
Relative Humidity: 54%
Pressure (altimeter): 30.15 in. Hg (1020 hPa)
ob: KIJX 290055Z AUTO 22003KT 10SM CLR 24/14 A3015 RMK AO2 T02410143
cycle: 1

Station Type Date Time Source
KIJX TAF UTC NOAA

Error!

Example: see airport list